sensor_id;sensor_type;location;lat;lon;timestamp;P1;durP1;ratioP1;P2;durP2;ratioP2
49626;SDS011;35527;54.616;39.786;2024-01-15T00:01:51;6.00;;;3.80;;
49626;SDS011;35527;54.616;39.786;2024-01-15T00:05:53;8.95;;;3.80;;
49626;SDS011;35527;54.616;39.786;2024-01-15T00:09:54;8.10;;;3.40;;
49626;SDS011;35527;54.616;39.786;2024-01-15T00:13:58;6.38;;;2.58;;
49626;SDS011;35527;54.616;39.786;2024-01-15T00:18:00;8.88;;;4.30;;
49626;SDS011;35527;54.616;39.786;2024-01-15T00:22:02;7.20;;;2.85;;
49626;SDS011;35527;54.616;39.786;2024-01-15T00:26:10;5.95;;;3.05;;
49626;SDS011;35527;54.616;39.786;2024-01-15T00:30:31;7.30;;;3.40;;
49626;SDS011;35527;54.616;39.786;2024-01-15T00:34:33;7.60;;;3.30;;
49626;SDS011;35527;54.616;39.786;2024-01-15T00:38:41;6.45;;;3.10;;
49626;SDS011;35527;54.616;39.786;2024-01-15T00:42:43;5.95;;;3.10;;
49626;SDS011;35527;54.616;39.786;2024-01-15T00:46:44;5.57;;;2.80;;
49626;SDS011;35527;54.616;39.786;2024-01-15T00:50:47;6.68;;;3.78;;
49626;SDS011;35527;54.616;39.786;2024-01-15T00:54:52;6.97;;;2.72;;
49626;SDS011;35527;54.616;39.786;2024-01-15T00:58:53;8.85;;;3.72;;
49626;SDS011;35527;54.616;39.786;2024-01-15T01:03:21;7.38;;;4.03;;
49626;SDS011;35527;54.616;39.786;2024-01-15T01:07:25;7.93;;;4.13;;
49626;SDS011;35527;54.616;39.786;2024-01-15T01:11:26;10.93;;;4.50;;
49626;SDS011;35527;54.616;39.786;2024-01-15T01:15:28;7.35;;;3.67;;
49626;SDS011;35527;54.616;39.786;2024-01-15T01:19:32;11.52;;;3.95;;
49626;SDS011;35527;54.616;39.786;2024-01-15T01:23:33;8.73;;;4.70;;
49626;SDS011;35527;54.616;39.786;2024-01-15T01:31:44;11.07;;;4.88;;
49626;SDS011;35527;54.616;39.786;2024-01-15T01:35:45;7.97;;;3.35;;
49626;SDS011;35527;54.616;39.786;2024-01-15T01:39:48;7.93;;;3.50;;
49626;SDS011;35527;54.616;39.786;2024-01-15T01:43:49;12.18;;;4.55;;
49626;SDS011;35527;54.616;39.786;2024-01-15T01:47:51;8.48;;;4.05;;
49626;SDS011;35527;54.616;39.786;2024-01-15T01:51:58;8.88;;;4.32;;
49626;SDS011;35527;54.616;39.786;2024-01-15T01:56:01;8.40;;;4.13;;
49626;SDS011;35527;54.616;39.786;2024-01-15T02:00:05;14.02;;;5.18;;
49626;SDS011;35527;54.616;39.786;2024-01-15T02:04:10;10.77;;;4.78;;
49626;SDS011;35527;54.616;39.786;2024-01-15T02:08:12;12.57;;;4.90;;
49626;SDS011;35527;54.616;39.786;2024-01-15T02:12:19;11.95;;;5.60;;
49626;SDS011;35527;54.616;39.786;2024-01-15T02:16:27;11.98;;;4.65;;
49626;SDS011;35527;54.616;39.786;2024-01-15T02:20:28;11.40;;;4.85;;
49626;SDS011;35527;54.616;39.786;2024-01-15T02:24:34;4.33;;;2.50;;
49626;SDS011;35527;54.616;39.786;2024-01-15T02:28:38;7.07;;;4.10;;
49626;SDS011;35527;54.616;39.786;2024-01-15T02:32:43;8.95;;;4.32;;
49626;SDS011;35527;54.616;39.786;2024-01-15T02:36:45;12.95;;;5.85;;
49626;SDS011;35527;54.616;39.786;2024-01-15T02:40:46;7.30;;;3.53;;
49626;SDS011;35527;54.616;39.786;2024-01-15T02:44:49;10.25;;;5.05;;
49626;SDS011;35527;54.616;39.786;2024-01-15T02:48:52;11.77;;;6.15;;
49626;SDS011;35527;54.616;39.786;2024-01-15T02:52:54;10.68;;;5.20;;
49626;SDS011;35527;54.616;39.786;2024-01-15T02:56:56;10.20;;;4.50;;
49626;SDS011;35527;54.616;39.786;2024-01-15T03:00:58;11.88;;;4.57;;
49626;SDS011;35527;54.616;39.786;2024-01-15T03:05:03;12.93;;;6.60;;
49626;SDS011;35527;54.616;39.786;2024-01-15T03:09:05;10.38;;;4.45;;
49626;SDS011;35527;54.616;39.786;2024-01-15T03:13:09;10.77;;;5.07;;
49626;SDS011;35527;54.616;39.786;2024-01-15T03:17:16;9.77;;;5.03;;
49626;SDS011;35527;54.616;39.786;2024-01-15T03:21:18;9.45;;;4.68;;
49626;SDS011;35527;54.616;39.786;2024-01-15T03:25:20;12.25;;;5.70;;
49626;SDS011;35527;54.616;39.786;2024-01-15T03:29:25;11.20;;;4.93;;
49626;SDS011;35527;54.616;39.786;2024-01-15T03:33:27;11.25;;;5.45;;
49626;SDS011;35527;54.616;39.786;2024-01-15T03:37:32;8.23;;;3.47;;
49626;SDS011;35527;54.616;39.786;2024-01-15T03:41:38;12.20;;;6.30;;
49626;SDS011;35527;54.616;39.786;2024-01-15T03:45:41;9.68;;;4.45;;
49626;SDS011;35527;54.616;39.786;2024-01-15T03:49:44;9.02;;;4.13;;
49626;SDS011;35527;54.616;39.786;2024-01-15T03:53:49;9.52;;;5.00;;
49626;SDS011;35527;54.616;39.786;2024-01-15T03:57:51;12.10;;;6.55;;
49626;SDS011;35527;54.616;39.786;2024-01-15T04:01:53;9.18;;;5.03;;
49626;SDS011;35527;54.616;39.786;2024-01-15T04:05:57;12.02;;;4.00;;
49626;SDS011;35527;54.616;39.786;2024-01-15T04:09:59;7.57;;;4.05;;
49626;SDS011;35527;54.616;39.786;2024-01-15T04:14:00;11.88;;;5.93;;
49626;SDS011;35527;54.616;39.786;2024-01-15T04:18:02;8.43;;;4.22;;
49626;SDS011;35527;54.616;39.786;2024-01-15T04:22:07;11.10;;;3.92;;
49626;SDS011;35527;54.616;39.786;2024-01-15T04:26:08;15.07;;;5.28;;
49626;SDS011;35527;54.616;39.786;2024-01-15T04:30:16;10.38;;;4.32;;
49626;SDS011;35527;54.616;39.786;2024-01-15T04:34:29;9.27;;;5.35;;
49626;SDS011;35527;54.616;39.786;2024-01-15T04:38:31;10.05;;;4.68;;
49626;SDS011;35527;54.616;39.786;2024-01-15T04:42:40;10.52;;;5.97;;
49626;SDS011;35527;54.616;39.786;2024-01-15T04:46:43;13.55;;;5.97;;
49626;SDS011;35527;54.616;39.786;2024-01-15T04:50:45;13.55;;;5.47;;
49626;SDS011;35527;54.616;39.786;2024-01-15T04:54:49;10.02;;;4.53;;
49626;SDS011;35527;54.616;39.786;2024-01-15T04:58:50;12.32;;;4.47;;
49626;SDS011;35527;54.616;39.786;2024-01-15T05:02:51;14.52;;;6.05;;
49626;SDS011;35527;54.616;39.786;2024-01-15T05:06:56;12.10;;;6.00;;
49626;SDS011;35527;54.616;39.786;2024-01-15T05:10:57;9.13;;;3.95;;
49626;SDS011;35527;54.616;39.786;2024-01-15T05:14:59;14.38;;;7.00;;
49626;SDS011;35527;54.616;39.786;2024-01-15T05:19:07;13.10;;;5.53;;
49626;SDS011;35527;54.616;39.786;2024-01-15T05:23:10;10.43;;;5.25;;
49626;SDS011;35527;54.616;39.786;2024-01-15T05:27:17;12.27;;;6.32;;
49626;SDS011;35527;54.616;39.786;2024-01-15T05:31:19;15.48;;;6.90;;
49626;SDS011;35527;54.616;39.786;2024-01-15T05:35:24;13.75;;;6.47;;
49626;SDS011;35527;54.616;39.786;2024-01-15T05:39:26;11.82;;;6.50;;
49626;SDS011;35527;54.616;39.786;2024-01-15T05:43:34;15.13;;;8.27;;
49626;SDS011;35527;54.616;39.786;2024-01-15T05:47:36;25.45;;;6.93;;
49626;SDS011;35527;54.616;39.786;2024-01-15T05:51:42;9.00;;;3.78;;
49626;SDS011;35527;54.616;39.786;2024-01-15T05:55:45;13.63;;;6.05;;
49626;SDS011;35527;54.616;39.786;2024-01-15T05:59:49;16.38;;;6.70;;
49626;SDS011;35527;54.616;39.786;2024-01-15T06:03:54;9.23;;;5.18;;
49626;SDS011;35527;54.616;39.786;2024-01-15T06:08:00;14.40;;;6.95;;
49626;SDS011;35527;54.616;39.786;2024-01-15T06:12:08;10.32;;;5.60;;
49626;SDS011;35527;54.616;39.786;2024-01-15T06:16:15;11.90;;;4.85;;
49626;SDS011;35527;54.616;39.786;2024-01-15T06:20:20;13.48;;;6.22;;
49626;SDS011;35527;54.616;39.786;2024-01-15T06:24:21;12.23;;;5.72;;
49626;SDS011;35527;54.616;39.786;2024-01-15T06:28:25;12.82;;;6.25;;
49626;SDS011;35527;54.616;39.786;2024-01-15T06:32:29;9.73;;;4.70;;
49626;SDS011;35527;54.616;39.786;2024-01-15T06:36:31;12.32;;;6.53;;
49626;SDS011;35527;54.616;39.786;2024-01-15T06:40:35;10.52;;;5.93;;
49626;SDS011;35527;54.616;39.786;2024-01-15T06:44:41;11.63;;;5.18;;
49626;SDS011;35527;54.616;39.786;2024-01-15T06:48:43;11.05;;;5.63;;
49626;SDS011;35527;54.616;39.786;2024-01-15T06:52:48;11.45;;;5.63;;
49626;SDS011;35527;54.616;39.786;2024-01-15T06:56:52;6.32;;;3.72;;
49626;SDS011;35527;54.616;39.786;2024-01-15T07:00:54;10.30;;;4.47;;
49626;SDS011;35527;54.616;39.786;2024-01-15T07:04:57;10.38;;;4.72;;
49626;SDS011;35527;54.616;39.786;2024-01-15T07:08:59;8.65;;;3.53;;
49626;SDS011;35527;54.616;39.786;2024-01-15T07:13:01;8.35;;;4.57;;
49626;SDS011;35527;54.616;39.786;2024-01-15T07:17:03;12.35;;;6.32;;
49626;SDS011;35527;54.616;39.786;2024-01-15T07:21:08;12.38;;;5.20;;
49626;SDS011;35527;54.616;39.786;2024-01-15T07:25:10;10.18;;;5.43;;
49626;SDS011;35527;54.616;39.786;2024-01-15T07:29:13;10.43;;;5.55;;
49626;SDS011;35527;54.616;39.786;2024-01-15T07:33:15;13.82;;;6.35;;
49626;SDS011;35527;54.616;39.786;2024-01-15T07:37:16;12.68;;;5.70;;
49626;SDS011;35527;54.616;39.786;2024-01-15T07:41:24;15.15;;;7.22;;
49626;SDS011;35527;54.616;39.786;2024-01-15T07:45:25;9.27;;;5.03;;
49626;SDS011;35527;54.616;39.786;2024-01-15T07:49:28;12.52;;;6.63;;
49626;SDS011;35527;54.616;39.786;2024-01-15T07:53:30;12.93;;;6.60;;
49626;SDS011;35527;54.616;39.786;2024-01-15T07:57:33;10.98;;;4.47;;
49626;SDS011;35527;54.616;39.786;2024-01-15T08:01:35;14.05;;;6.47;;
49626;SDS011;35527;54.616;39.786;2024-01-15T08:05:40;11.32;;;5.75;;
49626;SDS011;35527;54.616;39.786;2024-01-15T08:09:42;16.20;;;7.25;;
49626;SDS011;35527;54.616;39.786;2024-01-15T08:13:46;14.27;;;7.07;;
49626;SDS011;35527;54.616;39.786;2024-01-15T08:17:49;10.65;;;5.60;;
49626;SDS011;35527;54.616;39.786;2024-01-15T08:21:51;16.70;;;6.80;;
49626;SDS011;35527;54.616;39.786;2024-01-15T08:25:52;13.30;;;6.50;;
49626;SDS011;35527;54.616;39.786;2024-01-15T08:29:56;13.23;;;6.43;;
49626;SDS011;35527;54.616;39.786;2024-01-15T08:33:58;15.68;;;8.05;;
49626;SDS011;35527;54.616;39.786;2024-01-15T08:37:59;14.27;;;6.38;;
49626;SDS011;35527;54.616;39.786;2024-01-15T08:42:00;8.60;;;4.30;;
49626;SDS011;35527;54.616;39.786;2024-01-15T08:46:04;9.93;;;3.47;;
49626;SDS011;35527;54.616;39.786;2024-01-15T08:50:05;10.82;;;5.38;;
49626;SDS011;35527;54.616;39.786;2024-01-15T08:54:08;11.60;;;5.15;;
49626;SDS011;35527;54.616;39.786;2024-01-15T08:58:12;13.77;;;6.13;;
49626;SDS011;35527;54.616;39.786;2024-01-15T09:02:16;11.57;;;5.40;;
49626;SDS011;35527;54.616;39.786;2024-01-15T09:06:20;12.02;;;5.18;;
49626;SDS011;35527;54.616;39.786;2024-01-15T09:10:22;13.32;;;6.95;;
49626;SDS011;35527;54.616;39.786;2024-01-15T09:14:23;14.35;;;6.82;;
49626;SDS011;35527;54.616;39.786;2024-01-15T09:18:27;13.68;;;6.63;;
49626;SDS011;35527;54.616;39.786;2024-01-15T09:22:29;12.63;;;6.80;;
49626;SDS011;35527;54.616;39.786;2024-01-15T09:26:31;8.05;;;4.05;;
49626;SDS011;35527;54.616;39.786;2024-01-15T09:30:35;14.25;;;6.38;;
49626;SDS011;35527;54.616;39.786;2024-01-15T09:34:38;10.82;;;4.85;;
49626;SDS011;35527;54.616;39.786;2024-01-15T09:38:43;10.57;;;4.90;;
49626;SDS011;35527;54.616;39.786;2024-01-15T09:42:47;16.65;;;5.68;;
49626;SDS011;35527;54.616;39.786;2024-01-15T09:46:51;13.73;;;5.47;;
49626;SDS011;35527;54.616;39.786;2024-01-15T09:50:53;14.45;;;6.40;;
49626;SDS011;35527;54.616;39.786;2024-01-15T09:54:58;15.73;;;6.45;;
49626;SDS011;35527;54.616;39.786;2024-01-15T09:59:02;10.77;;;4.85;;
49626;SDS011;35527;54.616;39.786;2024-01-15T10:03:10;9.82;;;4.20;;
49626;SDS011;35527;54.616;39.786;2024-01-15T10:07:17;12.90;;;5.53;;
49626;SDS011;35527;54.616;39.786;2024-01-15T10:11:20;9.82;;;4.65;;
49626;SDS011;35527;54.616;39.786;2024-01-15T10:15:23;14.50;;;6.38;;
49626;SDS011;35527;54.616;39.786;2024-01-15T10:19:25;10.55;;;4.63;;
49626;SDS011;35527;54.616;39.786;2024-01-15T10:23:27;12.30;;;5.63;;
49626;SDS011;35527;54.616;39.786;2024-01-15T10:27:34;11.43;;;4.57;;
49626;SDS011;35527;54.616;39.786;2024-01-15T10:31:39;10.82;;;5.43;;
49626;SDS011;35527;54.616;39.786;2024-01-15T10:35:44;10.30;;;4.63;;
49626;SDS011;35527;54.616;39.786;2024-01-15T10:39:48;15.07;;;7.22;;
49626;SDS011;35527;54.616;39.786;2024-01-15T10:43:52;15.18;;;6.45;;
49626;SDS011;35527;54.616;39.786;2024-01-15T10:52:00;17.65;;;7.55;;
49626;SDS011;35527;54.616;39.786;2024-01-15T10:56:02;12.05;;;5.10;;
49626;SDS011;35527;54.616;39.786;2024-01-15T11:00:06;13.00;;;7.03;;
49626;SDS011;35527;54.616;39.786;2024-01-15T11:04:12;15.15;;;5.95;;
49626;SDS011;35527;54.616;39.786;2024-01-15T11:08:18;15.82;;;7.65;;
49626;SDS011;35527;54.616;39.786;2024-01-15T11:12:22;14.88;;;6.07;;
49626;SDS011;35527;54.616;39.786;2024-01-15T11:16:53;12.30;;;6.45;;
49626;SDS011;35527;54.616;39.786;2024-01-15T11:26:03;13.73;;;4.90;;
49626;SDS011;35527;54.616;39.786;2024-01-15T11:30:13;13.50;;;4.97;;
49626;SDS011;35527;54.616;39.786;2024-01-15T11:34:18;15.57;;;5.30;;
49626;SDS011;35527;54.616;39.786;2024-01-15T11:38:28;13.80;;;5.90;;
49626;SDS011;35527;54.616;39.786;2024-01-15T11:42:31;15.80;;;7.07;;
49626;SDS011;35527;54.616;39.786;2024-01-15T11:46:36;10.43;;;4.75;;
49626;SDS011;35527;54.616;39.786;2024-01-15T11:51:04;14.95;;;5.63;;
49626;SDS011;35527;54.616;39.786;2024-01-15T11:55:12;12.57;;;5.03;;
49626;SDS011;35527;54.616;39.786;2024-01-15T11:59:25;9.82;;;3.50;;
49626;SDS011;35527;54.616;39.786;2024-01-15T12:03:31;8.90;;;3.45;;
49626;SDS011;35527;54.616;39.786;2024-01-15T12:07:37;14.18;;;5.78;;
49626;SDS011;35527;54.616;39.786;2024-01-15T12:11:38;19.02;;;6.38;;
49626;SDS011;35527;54.616;39.786;2024-01-15T12:15:54;15.15;;;5.45;;
49626;SDS011;35527;54.616;39.786;2024-01-15T12:19:56;12.77;;;5.32;;
49626;SDS011;35527;54.616;39.786;2024-01-15T12:23:58;10.95;;;6.05;;
49626;SDS011;35527;54.616;39.786;2024-01-15T12:28:01;10.10;;;4.38;;
49626;SDS011;35527;54.616;39.786;2024-01-15T12:32:14;10.80;;;5.45;;
49626;SDS011;35527;54.616;39.786;2024-01-15T12:36:20;14.85;;;7.18;;
49626;SDS011;35527;54.616;39.786;2024-01-15T12:40:23;13.07;;;5.93;;
49626;SDS011;35527;54.616;39.786;2024-01-15T12:44:28;11.23;;;4.07;;
49626;SDS011;35527;54.616;39.786;2024-01-15T12:48:29;17.25;;;7.55;;
49626;SDS011;35527;54.616;39.786;2024-01-15T12:52:32;14.63;;;7.03;;
49626;SDS011;35527;54.616;39.786;2024-01-15T12:56:33;10.68;;;4.50;;
49626;SDS011;35527;54.616;39.786;2024-01-15T13:00:37;17.08;;;7.85;;
49626;SDS011;35527;54.616;39.786;2024-01-15T13:04:41;11.73;;;5.38;;
49626;SDS011;35527;54.616;39.786;2024-01-15T13:08:44;16.20;;;7.15;;
49626;SDS011;35527;54.616;39.786;2024-01-15T13:12:46;16.33;;;5.18;;
49626;SDS011;35527;54.616;39.786;2024-01-15T13:16:57;15.95;;;6.03;;
49626;SDS011;35527;54.616;39.786;2024-01-15T13:21:00;16.80;;;5.38;;
49626;SDS011;35527;54.616;39.786;2024-01-15T13:25:04;11.73;;;5.57;;
49626;SDS011;35527;54.616;39.786;2024-01-15T13:29:11;11.50;;;5.57;;
49626;SDS011;35527;54.616;39.786;2024-01-15T13:33:13;13.88;;;6.82;;
49626;SDS011;35527;54.616;39.786;2024-01-15T13:37:15;18.77;;;7.60;;
49626;SDS011;35527;54.616;39.786;2024-01-15T13:41:22;17.65;;;7.10;;
49626;SDS011;35527;54.616;39.786;2024-01-15T13:45:30;15.25;;;7.07;;
49626;SDS011;35527;54.616;39.786;2024-01-15T13:49:35;15.00;;;7.20;;
49626;SDS011;35527;54.616;39.786;2024-01-15T13:53:39;13.80;;;6.00;;
49626;SDS011;35527;54.616;39.786;2024-01-15T13:57:43;18.50;;;8.20;;
49626;SDS011;35527;54.616;39.786;2024-01-15T14:01:45;16.45;;;6.85;;
49626;SDS011;35527;54.616;39.786;2024-01-15T14:05:52;19.10;;;7.47;;
49626;SDS011;35527;54.616;39.786;2024-01-15T14:09:53;15.13;;;7.00;;
49626;SDS011;35527;54.616;39.786;2024-01-15T14:13:54;14.80;;;7.20;;
49626;SDS011;35527;54.616;39.786;2024-01-15T14:18:00;16.50;;;6.95;;
49626;SDS011;35527;54.616;39.786;2024-01-15T14:22:03;14.55;;;7.10;;
49626;SDS011;35527;54.616;39.786;2024-01-15T14:26:05;16.27;;;7.13;;
49626;SDS011;35527;54.616;39.786;2024-01-15T14:30:12;20.90;;;9.10;;
49626;SDS011;35527;54.616;39.786;2024-01-15T14:34:14;15.35;;;6.32;;
49626;SDS011;35527;54.616;39.786;2024-01-15T14:38:15;11.88;;;5.32;;
49626;SDS011;35527;54.616;39.786;2024-01-15T14:42:20;13.10;;;6.03;;
49626;SDS011;35527;54.616;39.786;2024-01-15T14:46:23;15.35;;;6.22;;
49626;SDS011;35527;54.616;39.786;2024-01-15T14:50:27;12.30;;;5.55;;
49626;SDS011;35527;54.616;39.786;2024-01-15T14:54:31;12.70;;;5.50;;
49626;SDS011;35527;54.616;39.786;2024-01-15T14:58:32;10.27;;;5.25;;
49626;SDS011;35527;54.616;39.786;2024-01-15T15:02:35;13.85;;;7.10;;
49626;SDS011;35527;54.616;39.786;2024-01-15T15:06:37;11.25;;;6.00;;
49626;SDS011;35527;54.616;39.786;2024-01-15T15:10:40;15.07;;;8.20;;
49626;SDS011;35527;54.616;39.786;2024-01-15T15:14:43;13.30;;;7.30;;
49626;SDS011;35527;54.616;39.786;2024-01-15T15:18:47;14.35;;;7.18;;
49626;SDS011;35527;54.616;39.786;2024-01-15T15:22:50;17.35;;;7.68;;
49626;SDS011;35527;54.616;39.786;2024-01-15T15:26:52;15.70;;;6.53;;
49626;SDS011;35527;54.616;39.786;2024-01-15T15:30:57;17.90;;;7.40;;
49626;SDS011;35527;54.616;39.786;2024-01-15T15:34:59;17.08;;;7.80;;
49626;SDS011;35527;54.616;39.786;2024-01-15T15:39:01;11.35;;;5.28;;
49626;SDS011;35527;54.616;39.786;2024-01-15T15:47:33;13.23;;;6.28;;
49626;SDS011;35527;54.616;39.786;2024-01-15T15:51:36;17.55;;;7.70;;
49626;SDS011;35527;54.616;39.786;2024-01-15T15:55:41;18.20;;;8.52;;
49626;SDS011;35527;54.616;39.786;2024-01-15T15:59:44;17.60;;;8.18;;
49626;SDS011;35527;54.616;39.786;2024-01-15T16:03:46;16.63;;;8.68;;
49626;SDS011;35527;54.616;39.786;2024-01-15T16:07:50;20.80;;;8.32;;
49626;SDS011;35527;54.616;39.786;2024-01-15T16:11:52;14.15;;;6.90;;
49626;SDS011;35527;54.616;39.786;2024-01-15T16:15:53;12.90;;;6.68;;
49626;SDS011;35527;54.616;39.786;2024-01-15T16:20:00;19.00;;;7.93;;
49626;SDS011;35527;54.616;39.786;2024-01-15T16:24:25;13.10;;;6.22;;
49626;SDS011;35527;54.616;39.786;2024-01-15T16:28:26;12.25;;;5.53;;
49626;SDS011;35527;54.616;39.786;2024-01-15T16:32:33;13.23;;;6.00;;
49626;SDS011;35527;54.616;39.786;2024-01-15T16:36:35;13.57;;;6.40;;
49626;SDS011;35527;54.616;39.786;2024-01-15T16:40:38;15.00;;;6.22;;
49626;SDS011;35527;54.616;39.786;2024-01-15T16:44:42;12.27;;;5.68;;
49626;SDS011;35527;54.616;39.786;2024-01-15T16:48:49;19.80;;;10.23;;
49626;SDS011;35527;54.616;39.786;2024-01-15T16:52:53;22.75;;;8.93;;
49626;SDS011;35527;54.616;39.786;2024-01-15T16:56:56;21.83;;;8.63;;
49626;SDS011;35527;54.616;39.786;2024-01-15T17:00:59;15.43;;;7.57;;
49626;SDS011;35527;54.616;39.786;2024-01-15T17:05:00;14.02;;;6.28;;
49626;SDS011;35527;54.616;39.786;2024-01-15T17:09:05;11.15;;;5.65;;
49626;SDS011;35527;54.616;39.786;2024-01-15T17:13:06;17.98;;;8.05;;
49626;SDS011;35527;54.616;39.786;2024-01-15T17:17:09;19.48;;;7.65;;
49626;SDS011;35527;54.616;39.786;2024-01-15T17:21:19;15.98;;;7.47;;
49626;SDS011;35527;54.616;39.786;2024-01-15T17:25:21;19.73;;;8.93;;
49626;SDS011;35527;54.616;39.786;2024-01-15T17:29:24;17.73;;;6.43;;
49626;SDS011;35527;54.616;39.786;2024-01-15T17:33:27;19.00;;;7.78;;
49626;SDS011;35527;54.616;39.786;2024-01-15T17:37:30;17.02;;;7.43;;
49626;SDS011;35527;54.616;39.786;2024-01-15T17:41:34;13.23;;;7.00;;
49626;SDS011;35527;54.616;39.786;2024-01-15T17:45:37;21.83;;;7.53;;
49626;SDS011;35527;54.616;39.786;2024-01-15T17:49:38;16.42;;;7.93;;
49626;SDS011;35527;54.616;39.786;2024-01-15T17:53:40;20.27;;;8.30;;
49626;SDS011;35527;54.616;39.786;2024-01-15T17:57:44;19.63;;;9.68;;
49626;SDS011;35527;54.616;39.786;2024-01-15T18:01:49;23.90;;;9.30;;
49626;SDS011;35527;54.616;39.786;2024-01-15T18:05:51;19.73;;;9.00;;
49626;SDS011;35527;54.616;39.786;2024-01-15T18:09:58;21.47;;;8.77;;
49626;SDS011;35527;54.616;39.786;2024-01-15T18:14:00;23.25;;;8.63;;
49626;SDS011;35527;54.616;39.786;2024-01-15T18:18:11;21.60;;;9.88;;
49626;SDS011;35527;54.616;39.786;2024-01-15T18:22:13;19.88;;;8.05;;
49626;SDS011;35527;54.616;39.786;2024-01-15T18:26:15;16.35;;;7.38;;
49626;SDS011;35527;54.616;39.786;2024-01-15T18:30:20;21.25;;;7.28;;
49626;SDS011;35527;54.616;39.786;2024-01-15T18:34:22;20.23;;;9.13;;
49626;SDS011;35527;54.616;39.786;2024-01-15T18:38:25;20.58;;;9.20;;
49626;SDS011;35527;54.616;39.786;2024-01-15T18:42:28;18.15;;;8.38;;
49626;SDS011;35527;54.616;39.786;2024-01-15T18:46:35;25.95;;;11.65;;
49626;SDS011;35527;54.616;39.786;2024-01-15T18:50:38;23.80;;;8.52;;
49626;SDS011;35527;54.616;39.786;2024-01-15T18:54:42;18.75;;;7.38;;
49626;SDS011;35527;54.616;39.786;2024-01-15T18:58:48;14.55;;;6.57;;
49626;SDS011;35527;54.616;39.786;2024-01-15T19:02:49;15.02;;;7.80;;
49626;SDS011;35527;54.616;39.786;2024-01-15T19:06:54;21.35;;;10.15;;
49626;SDS011;35527;54.616;39.786;2024-01-15T19:10:56;14.55;;;7.20;;
49626;SDS011;35527;54.616;39.786;2024-01-15T19:14:59;22.83;;;9.52;;
49626;SDS011;35527;54.616;39.786;2024-01-15T19:19:03;25.35;;;11.43;;
49626;SDS011;35527;54.616;39.786;2024-01-15T19:23:06;21.35;;;9.48;;
49626;SDS011;35527;54.616;39.786;2024-01-15T19:27:07;17.20;;;9.13;;
49626;SDS011;35527;54.616;39.786;2024-01-15T19:31:09;26.33;;;11.45;;
49626;SDS011;35527;54.616;39.786;2024-01-15T19:35:16;18.67;;;8.50;;
49626;SDS011;35527;54.616;39.786;2024-01-15T19:39:27;26.90;;;11.88;;
49626;SDS011;35527;54.616;39.786;2024-01-15T19:43:32;23.15;;;10.50;;
49626;SDS011;35527;54.616;39.786;2024-01-15T19:47:34;19.88;;;8.60;;
49626;SDS011;35527;54.616;39.786;2024-01-15T19:51:36;22.58;;;10.27;;
49626;SDS011;35527;54.616;39.786;2024-01-15T19:55:40;26.23;;;11.73;;
49626;SDS011;35527;54.616;39.786;2024-01-15T19:59:46;29.55;;;11.68;;
49626;SDS011;35527;54.616;39.786;2024-01-15T20:03:48;24.52;;;10.15;;
49626;SDS011;35527;54.616;39.786;2024-01-15T20:07:51;25.05;;;12.13;;
49626;SDS011;35527;54.616;39.786;2024-01-15T20:11:56;22.10;;;9.35;;
49626;SDS011;35527;54.616;39.786;2024-01-15T20:16:04;20.27;;;9.73;;
49626;SDS011;35527;54.616;39.786;2024-01-15T20:20:09;20.45;;;10.23;;
49626;SDS011;35527;54.616;39.786;2024-01-15T20:24:11;24.15;;;12.07;;
49626;SDS011;35527;54.616;39.786;2024-01-15T20:28:13;20.88;;;9.48;;
49626;SDS011;35527;54.616;39.786;2024-01-15T20:32:18;21.73;;;10.93;;
49626;SDS011;35527;54.616;39.786;2024-01-15T20:36:23;17.73;;;8.48;;
49626;SDS011;35527;54.616;39.786;2024-01-15T20:40:24;24.80;;;11.50;;
49626;SDS011;35527;54.616;39.786;2024-01-15T20:44:33;13.32;;;6.63;;
49626;SDS011;35527;54.616;39.786;2024-01-15T20:52:41;20.67;;;8.95;;
49626;SDS011;35527;54.616;39.786;2024-01-15T20:56:45;23.00;;;8.77;;
49626;SDS011;35527;54.616;39.786;2024-01-15T21:00:48;22.92;;;9.98;;
49626;SDS011;35527;54.616;39.786;2024-01-15T21:04:50;12.20;;;6.60;;
49626;SDS011;35527;54.616;39.786;2024-01-15T21:08:52;19.50;;;9.40;;
49626;SDS011;35527;54.616;39.786;2024-01-15T21:12:53;19.27;;;9.52;;
49626;SDS011;35527;54.616;39.786;2024-01-15T21:16:54;17.85;;;8.30;;
49626;SDS011;35527;54.616;39.786;2024-01-15T21:20:58;15.30;;;7.75;;
49626;SDS011;35527;54.616;39.786;2024-01-15T21:25:00;22.80;;;10.77;;
49626;SDS011;35527;54.616;39.786;2024-01-15T21:29:02;21.45;;;9.32;;
49626;SDS011;35527;54.616;39.786;2024-01-15T21:33:08;24.02;;;10.73;;
49626;SDS011;35527;54.616;39.786;2024-01-15T21:37:11;23.55;;;9.65;;
49626;SDS011;35527;54.616;39.786;2024-01-15T21:41:13;22.88;;;12.38;;
49626;SDS011;35527;54.616;39.786;2024-01-15T21:45:16;22.13;;;11.60;;
49626;SDS011;35527;54.616;39.786;2024-01-15T21:49:18;25.80;;;10.88;;
49626;SDS011;35527;54.616;39.786;2024-01-15T21:53:20;24.40;;;9.23;;
49626;SDS011;35527;54.616;39.786;2024-01-15T21:57:25;21.17;;;9.15;;
49626;SDS011;35527;54.616;39.786;2024-01-15T22:01:29;20.95;;;10.10;;
49626;SDS011;35527;54.616;39.786;2024-01-15T22:05:36;27.15;;;12.88;;
49626;SDS011;35527;54.616;39.786;2024-01-15T22:09:38;23.83;;;10.27;;
49626;SDS011;35527;54.616;39.786;2024-01-15T22:13:43;18.40;;;7.75;;
49626;SDS011;35527;54.616;39.786;2024-01-15T22:17:44;19.35;;;9.82;;
49626;SDS011;35527;54.616;39.786;2024-01-15T22:21:48;22.92;;;9.88;;
49626;SDS011;35527;54.616;39.786;2024-01-15T22:25:51;21.80;;;8.75;;
49626;SDS011;35527;54.616;39.786;2024-01-15T22:29:53;25.48;;;10.32;;
49626;SDS011;35527;54.616;39.786;2024-01-15T22:33:56;22.80;;;10.48;;
49626;SDS011;35527;54.616;39.786;2024-01-15T22:38:01;18.00;;;8.85;;
49626;SDS011;35527;54.616;39.786;2024-01-15T22:42:03;18.88;;;8.38;;
49626;SDS011;35527;54.616;39.786;2024-01-15T22:46:05;22.60;;;10.13;;
49626;SDS011;35527;54.616;39.786;2024-01-15T22:50:08;22.13;;;11.18;;
49626;SDS011;35527;54.616;39.786;2024-01-15T22:54:10;18.95;;;7.35;;
49626;SDS011;35527;54.616;39.786;2024-01-15T22:58:12;20.70;;;9.38;;
49626;SDS011;35527;54.616;39.786;2024-01-15T23:02:26;20.00;;;9.10;;
49626;SDS011;35527;54.616;39.786;2024-01-15T23:06:29;22.08;;;8.45;;
49626;SDS011;35527;54.616;39.786;2024-01-15T23:10:35;17.23;;;8.05;;
49626;SDS011;35527;54.616;39.786;2024-01-15T23:14:36;21.42;;;9.35;;
49626;SDS011;35527;54.616;39.786;2024-01-15T23:18:42;20.58;;;8.05;;
49626;SDS011;35527;54.616;39.786;2024-01-15T23:22:45;17.08;;;7.30;;
49626;SDS011;35527;54.616;39.786;2024-01-15T23:26:47;26.48;;;10.13;;
49626;SDS011;35527;54.616;39.786;2024-01-15T23:30:49;23.33;;;10.55;;
49626;SDS011;35527;54.616;39.786;2024-01-15T23:39:20;22.48;;;11.13;;
49626;SDS011;35527;54.616;39.786;2024-01-15T23:43:22;18.75;;;9.43;;
49626;SDS011;35527;54.616;39.786;2024-01-15T23:47:25;25.95;;;11.18;;
49626;SDS011;35527;54.616;39.786;2024-01-15T23:51:31;26.30;;;10.55;;
49626;SDS011;35527;54.616;39.786;2024-01-15T23:55:33;26.15;;;10.30;;
49626;SDS011;35527;54.616;39.786;2024-01-15T23:59:39;22.60;;;11.55;;
